Time;durP1;ratioP1;P1;durP2;ratioP2;P2;SDS_P1;SDS_P2;PMS_P1;PMS_P2;Temp;Humidity;BMP_temperature;BMP_pressure;BME280_temperature;BME280_humidity;BME280_pressure;Samples;Min_cycle;Max_cycle;Signal;HPM_P1;HPM_P2
2023/03/16 00:02:09;;;;;;;11.73;4.25;;;;;;;10.06;49.17;101071.97;5063842;28;20059;-66
2023/03/16 00:04:37;;;;;;;11.23;3.72;;;;;;;9.96;49.46;101072.13;5065707;28;20045;-68
2023/03/16 00:07:09;;;;;;;12.60;4.03;;;;;;;10.10;49.06;101067.53;5076237;28;20048;-67
2023/03/16 00:09:39;;;;;;;9.80;3.67;;;;;;;10.04;49.11;101051.38;5078713;28;20051;-67
2023/03/16 00:12:17;;;;;;;8.10;3.30;;;;;;;10.02;49.31;101045.34;5076827;28;20072;-68
2023/03/16 00:14:47;;;;;;;9.95;3.90;;;;;;;9.98;49.40;101049.81;5059132;28;20041;-68
2023/03/16 00:17:18;;;;;;;9.90;3.65;;;;;;;9.80;49.88;101056.16;5064821;28;20158;-68
2023/03/16 00:19:53;;;;;;;12.45;3.63;;;;;;;9.73;50.16;101061.22;5045801;28;20048;-68
2023/03/16 00:22:23;;;;;;;9.82;3.97;;;;;;;10.05;49.74;101053.00;5082458;28;20119;-68
2023/03/16 00:24:51;;;;;;;10.45;3.70;;;;;;;9.76;50.15;101042.19;5093801;28;20048;-68
2023/03/16 00:27:21;;;;;;;9.70;4.35;;;;;;;9.67;50.36;101049.50;5073951;28;20044;-68
2023/03/16 00:29:54;;;;;;;8.50;4.07;;;;;;;9.86;50.31;101043.97;5077122;28;20044;-67
2023/03/16 00:32:27;;;;;;;10.65;4.03;;;;;;;9.97;49.63;101040.75;5075473;28;20067;-68
2023/03/16 00:34:55;;;;;;;13.23;4.03;;;;;;;9.91;50.02;101046.63;5080508;28;20056;-68
2023/03/16 00:37:23;;;;;;;9.43;4.00;;;;;;;9.66;50.51;101053.38;5074737;28;20057;-67
2023/03/16 00:39:54;;;;;;;10.52;4.35;;;;;;;9.58;50.85;101051.31;5057212;28;20059;-67
2023/03/16 00:42:27;;;;;;;13.07;4.60;;;;;;;9.49;51.18;101044.84;5056729;28;20052;-68
2023/03/16 00:44:56;;;;;;;;;;;;;;;9.64;51.06;101041.03;5068754;28;20049;-68
2023/03/16 00:47:29;;;;;;;12.32;3.97;;;;;;;9.66;50.92;101036.88;5059007;28;19921;-67
2023/03/16 00:49:57;;;;;;;11.10;3.88;;;;;;;9.55;51.07;101029.91;5078166;28;20503;-68
2023/03/16 00:52:26;;;;;;;12.00;4.43;;;;;;;9.46;52.09;101019.88;5050219;28;20056;-68
2023/03/16 00:54:54;;;;;;;10.23;4.10;;;;;;;9.65;51.42;101013.25;5040702;28;20041;-68
2023/03/16 00:57:24;;;;;;;9.60;3.92;;;;;;;9.46;52.19;101001.44;5073852;28;20048;-67
2023/03/16 00:59:51;;;;;;;13.77;4.78;;;;;;;9.27;52.50;101019.06;5077122;28;20060;-68
2023/03/16 01:02:25;;;;;;;11.82;4.70;;;;;;;9.26;52.85;101022.94;5075358;28;20065;-68
2023/03/16 01:04:53;;;;;;;11.50;4.20;;;;;;;9.39;52.67;101034.00;5078314;28;20052;-68
2023/03/16 01:07:21;;;;;;;10.75;4.30;;;;;;;9.32;52.45;101022.56;5075391;28;20056;-68
2023/03/16 01:09:50;;;;;;;9.55;4.30;;;;;;;9.41;52.82;101023.53;5076962;28;20036;-67
2023/03/16 01:12:18;;;;;;;14.63;5.15;;;;;;;9.39;52.92;101036.75;5076591;28;20063;-67
2023/03/16 01:14:45;;;;;;;12.25;4.35;;;;;;;9.42;52.90;101038.91;5077382;28;20049;-68
2023/03/16 01:17:14;;;;;;;10.45;4.30;;;;;;;9.71;52.33;101036.78;5075590;28;20419;-67
2023/03/16 01:19:43;;;;;;;11.43;4.50;;;;;;;9.83;51.84;101025.31;5059263;28;20471;-66
2023/03/16 01:22:11;;;;;;;10.38;4.32;;;;;;;9.76;51.67;101000.13;5054265;28;20053;-66
2023/03/16 01:24:39;;;;;;;10.30;4.25;;;;;;;9.52;52.41;100985.69;5039487;28;20060;-67
2023/03/16 01:27:07;;;;;;;9.32;3.97;;;;;;;9.50;52.48;100974.19;5071968;28;20456;-69
2023/03/16 01:29:35;;;;;;;12.15;4.05;;;;;;;9.42;53.14;100980.34;5076423;28;20052;-68
2023/03/16 01:32:03;;;;;;;12.10;3.85;;;;;;;9.52;52.71;100983.75;5049617;28;20484;-68
2023/03/16 01:34:32;;;;;;;11.65;3.90;;;;;;;9.39;53.18;100979.03;5056089;28;20060;-67
2023/03/16 01:37:00;;;;;;;11.07;4.32;;;;;;;9.32;53.57;100986.81;5069152;28;20053;-67
2023/03/16 01:39:36;;;;;;;13.10;4.55;;;;;;;9.24;53.83;100981.97;5075580;28;20045;-67
2023/03/16 01:42:05;;;;;;;14.15;4.68;;;;;;;9.35;53.75;100980.72;5065677;28;20404;-68
2023/03/16 01:45:04;;;;;;;9.15;3.88;;;;;;;9.46;53.51;100968.47;5077725;28;20049;-69
2023/03/16 01:47:38;;;;;;;14.90;3.78;;;;;;;9.24;53.77;100981.97;5062161;28;20057;-67
2023/03/16 01:50:11;;;;;;;12.20;4.25;;;;;;;9.02;55.00;100970.78;5064093;28;20060;-67
2023/03/16 01:52:41;;;;;;;12.18;4.15;;;;;;;9.06;54.87;100977.31;5058274;28;20053;-67
2023/03/16 01:55:12;;;;;;;10.35;4.38;;;;;;;9.24;54.64;100978.44;5066720;28;20049;-67
2023/03/16 01:57:41;;;;;;;12.73;4.18;;;;;;;9.10;54.99;100965.44;5070494;28;20384;-67
2023/03/16 02:00:22;;;;;;;15.77;4.55;;;;;;;9.17;54.70;100954.06;5055502;28;20048;-67
2023/03/16 02:03:15;;;;;;;15.50;4.68;;;;;;;8.94;55.43;100964.00;5074552;28;20057;-68
2023/03/16 02:06:00;;;;;;;12.52;4.57;;;;;;;9.02;55.51;100946.06;5061756;28;20049;-67
2023/03/16 02:08:30;;;;;;;13.43;4.72;;;;;;;8.81;56.42;100945.53;5055903;28;20419;-67
2023/03/16 02:10:58;;;;;;;10.95;4.53;;;;;;;8.97;56.00;100940.63;5069232;28;20052;-67
2023/03/16 02:13:38;;;;;;;12.80;4.65;;;;;;;9.05;55.78;100946.28;5060290;28;20380;-68
2023/03/16 02:16:07;;;;;;;13.90;4.40;;;;;;;9.07;55.70;100954.22;5061960;28;20049;-68
2023/03/16 02:18:35;;;;;;;12.23;4.75;;;;;;;9.13;55.42;100943.97;5041954;28;20052;-67
2023/03/16 02:21:07;;;;;;;9.40;4.10;;;;;;;8.95;56.05;100946.44;5044313;28;20047;-67
2023/03/16 02:23:34;;;;;;;10.82;4.82;;;;;;;8.99;56.02;100943.91;5058343;28;20059;-68
2023/03/16 02:26:23;;;;;;;13.57;4.75;;;;;;;8.93;56.18;100943.16;5062420;28;20045;-67
2023/03/16 02:28:54;;;;;;;13.07;4.53;;;;;;;8.99;56.02;100932.94;5074853;28;20765;-69
2023/03/16 02:31:21;;;;;;;10.85;4.63;;;;;;;8.97;56.13;100937.91;5055428;28;20731;-68
2023/03/16 02:33:49;;;;;;;11.23;4.60;;;;;;;8.88;56.03;100937.75;5043153;28;20067;-68
2023/03/16 02:36:18;;;;;;;11.83;4.60;;;;;;;8.87;56.29;100940.78;5060776;28;20045;-67
2023/03/16 02:38:46;;;;;;;13.05;4.55;;;;;;;8.85;55.96;100937.53;5056521;28;20057;-67
2023/03/16 02:41:18;;;;;;;15.55;4.65;;;;;;;8.63;56.69;100929.06;5057202;28;20049;-68
2023/03/16 02:44:04;;;;;;;12.57;4.43;;;;;;;8.74;56.23;100931.34;5039525;28;20059;-68
2023/03/16 02:46:35;;;;;;;12.82;4.13;;;;;;;8.89;55.64;100911.91;5065390;28;20041;-68
2023/03/16 02:49:26;;;;;;;10.85;4.45;;;;;;;8.96;55.33;100915.09;5071467;28;20055;-67
2023/03/16 02:51:56;;;;;;;13.73;3.92;;;;;;;8.56;56.11;100906.63;5057494;28;20056;-67
2023/03/16 02:54:23;;;;;;;10.73;4.47;;;;;;;8.47;56.62;100900.16;5055112;28;20049;-68
2023/03/16 02:56:51;;;;;;;8.40;3.97;;;;;;;8.55;56.34;100903.06;5058840;28;20049;-68
2023/03/16 02:59:20;;;;;;;9.88;4.00;;;;;;;8.42;56.24;100897.50;5054742;28;20083;-68
2023/03/16 03:01:47;;;;;;;11.05;4.63;;;;;;;8.53;56.07;100883.31;5066571;28;20127;-67
2023/03/16 03:04:16;;;;;;;10.43;3.72;;;;;;;8.60;55.98;100885.69;5070181;28;20053;-67
2023/03/16 03:06:43;;;;;;;9.07;3.60;;;;;;;8.61;55.46;100890.88;5066420;28;20059;-68
2023/03/16 03:09:11;;;;;;;11.73;4.03;;;;;;;8.54;55.24;100884.94;5074249;28;20063;-67
2023/03/16 03:11:40;;;;;;;11.75;3.95;;;;;;;8.50;55.14;100885.84;5039991;28;20082;-68
2023/03/16 03:14:07;;;;;;;10.05;4.00;;;;;;;8.35;56.22;100875.88;5070559;28;20053;-68
2023/03/16 03:16:36;;;;;;;11.40;3.80;;;;;;;8.37;56.16;100884.63;5065545;28;20052;-68
2023/03/16 03:19:04;;;;;;;11.52;3.90;;;;;;;8.25;56.06;100884.25;5075359;28;20300;-69
2023/03/16 03:21:35;;;;;;;14.95;4.45;;;;;;;8.39;55.74;100874.19;5056811;28;20053;-68
2023/03/16 03:24:02;;;;;;;11.00;4.07;;;;;;;8.27;55.54;100878.47;5075363;28;20061;-67
2023/03/16 03:26:33;;;;;;;10.73;3.95;;;;;;;8.45;55.72;100888.66;5069687;28;20384;-67
2023/03/16 03:29:03;;;;;;;9.63;3.80;;;;;;;8.50;54.98;100900.41;5074251;28;20057;-68
2023/03/16 03:31:32;;;;;;;8.68;3.50;;;;;;;8.23;55.83;100889.19;5039388;28;20056;-67
2023/03/16 03:34:05;;;;;;;14.07;4.13;;;;;;;7.91;56.10;100894.53;5055266;28;20064;-67
2023/03/16 03:36:34;;;;;;;7.88;3.65;;;;;;;8.09;56.69;100882.75;5063840;28;20052;-67
2023/03/16 03:39:03;;;;;;;9.35;3.80;;;;;;;8.22;56.19;100884.81;5040156;28;20049;-66
2023/03/16 03:41:32;;;;;;;;;;;;;;;8.03;56.51;100872.97;5072872;28;20048;-67
2023/03/16 03:44:03;;;;;;;8.52;3.40;;;;;;;8.04;56.23;100871.06;5055436;28;19921;-61
2023/03/16 03:46:30;;;;;;;8.37;3.70;;;;;;;8.25;56.38;100873.28;5063049;28;20052;-62
2023/03/16 03:49:02;;;;;;;12.90;4.55;;;;;;;8.09;55.96;100873.75;5072388;28;20055;-62
2023/03/16 03:51:32;;;;;;;8.35;3.17;;;;;;;8.03;55.65;100870.25;5062725;28;20060;-61
2023/03/16 03:54:03;;;;;;;14.38;4.30;;;;;;;8.07;55.69;100875.97;5071481;28;20053;-61
2023/03/16 03:56:56;;;;;;;11.98;3.47;;;;;;;8.07;55.52;100876.78;5069782;28;20048;-61
2023/03/16 03:59:23;;;;;;;13.18;3.78;;;;;;;8.10;55.29;100864.38;5074488;28;20056;-62
2023/03/16 04:02:14;;;;;;;8.80;3.13;;;;;;;8.13;55.08;100863.78;5045193;28;20075;-61
2023/03/16 04:04:47;;;;;;;8.15;3.28;;;;;;;8.42;54.45;100864.56;5058089;28;20063;-61
2023/03/16 04:07:15;;;;;;;8.77;3.20;;;;;;;8.21;54.77;100860.41;5075880;28;20404;-61
2023/03/16 04:09:44;;;;;;;9.73;3.00;;;;;;;7.86;55.30;100856.19;5077824;28;20067;-61
2023/03/16 04:12:21;;;;;;;10.27;3.55;;;;;;;7.69;56.00;100858.56;5076005;28;20059;-61
2023/03/16 04:14:50;;;;;;;10.27;3.45;;;;;;;7.83;55.58;100851.25;5076903;28;20068;-61
2023/03/16 04:17:18;;;;;;;11.30;3.42;;;;;;;8.02;55.70;100850.22;5076518;28;20048;-61
2023/03/16 04:19:46;;;;;;;13.15;3.17;;;;;;;8.12;55.01;100838.31;5077066;28;20071;-61
2023/03/16 04:22:16;;;;;;;9.25;3.50;;;;;;;8.06;54.93;100844.97;5076001;28;20048;-61
2023/03/16 04:24:45;;;;;;;7.60;3.13;;;;;;;7.97;54.97;100843.97;5071934;28;20037;-62
2023/03/16 04:27:13;;;;;;;8.38;2.65;;;;;;;7.86;55.04;100831.50;5075637;28;20048;-62
2023/03/16 04:29:42;;;;;;;11.50;3.67;;;;;;;7.79;55.37;100822.81;5070711;28;20049;-62
2023/03/16 04:32:10;;;;;;;12.48;3.20;;;;;;;7.86;55.19;100821.34;5089345;28;20052;-62
2023/03/16 04:34:42;;;;;;;7.75;2.92;;;;;;;7.73;55.42;100822.06;5076729;28;20132;-62
2023/03/16 04:37:12;;;;;;;8.20;3.10;;;;;;;7.82;55.31;100820.31;5075998;28;20060;-63
2023/03/16 04:39:41;;;;;;;10.35;3.03;;;;;;;7.98;55.25;100818.97;5070555;28;20056;-62
2023/03/16 04:42:09;;;;;;;11.05;3.28;;;;;;;8.01;55.10;100817.59;5065471;28;20052;-62
2023/03/16 04:44:43;;;;;;;10.63;3.05;;;;;;;7.86;54.46;100815.84;5064567;28;20048;-62
2023/03/16 04:47:15;;;;;;;12.07;3.17;;;;;;;8.20;54.16;100815.69;5075068;28;20500;-62
2023/03/16 04:49:43;;;;;;;8.52;2.42;;;;;;;8.35;53.30;100807.25;5077271;28;20087;-63
2023/03/16 04:52:11;;;;;;;10.13;3.03;;;;;;;8.06;53.65;100805.72;5073649;28;20062;-62
2023/03/16 04:54:39;;;;;;;8.93;2.90;;;;;;;7.93;54.37;100799.84;5046651;28;20049;-62
2023/03/16 04:57:07;;;;;;;11.23;2.80;;;;;;;7.66;54.71;100809.78;5056312;28;20052;-62
2023/03/16 04:59:42;;;;;;;10.18;3.05;;;;;;;7.78;54.67;100804.72;5071492;28;20059;-62
2023/03/16 05:02:31;;;;;;;9.00;3.00;;;;;;;7.64;54.78;100809.25;5074878;28;20590;-62
2023/03/16 05:05:00;;;;;;;8.82;3.17;;;;;;;7.65;55.18;100795.25;5061111;28;20049;-62
2023/03/16 05:07:29;;;;;;;6.90;2.90;;;;;;;7.93;54.26;100799.06;5052760;28;20048;-62
2023/03/16 05:09:57;;;;;;;6.43;2.65;;;;;;;7.83;54.70;100807.38;5063118;28;20071;-62
2023/03/16 05:12:24;;;;;;;9.48;2.90;;;;;;;7.67;54.63;100793.06;5074960;28;20044;-62
2023/03/16 05:14:57;;;;;;;8.32;2.88;;;;;;;7.90;54.27;100789.47;5075894;28;20064;-61
2023/03/16 05:17:34;;;;;;;9.05;2.95;;;;;;;7.80;54.72;100794.28;5057131;28;20048;-63
2023/03/16 05:20:12;;;;;;;10.65;2.78;;;;;;;7.94;54.25;100785.06;5054366;28;20057;-62
2023/03/16 05:22:55;;;;;;;8.13;2.90;;;;;;;7.82;54.38;100787.41;5071260;28;20044;-62
2023/03/16 05:25:25;;;;;;;9.25;3.13;;;;;;;7.93;53.95;100785.34;5067356;28;20053;-61
2023/03/16 05:27:55;;;;;;;13.33;3.57;;;;;;;7.72;54.87;100787.50;5075006;28;20040;-62
2023/03/16 05:30:35;;;;;;;8.57;2.45;;;;;;;7.81;54.20;100793.19;5075664;28;20476;-60
2023/03/16 05:33:05;;;;;;;;;;;;;;;7.54;55.41;100795.69;5066646;28;20052;-61
2023/03/16 05:35:33;;;;;;;6.85;2.35;;;;;;;7.75;54.96;100794.34;5067946;28;19924;-61
2023/03/16 05:38:05;;;;;;;8.50;2.33;;;;;;;7.75;54.41;100797.91;5066840;28;20504;-62
2023/03/16 05:40:36;;;;;;;8.75;2.90;;;;;;;7.64;54.92;100792.81;5067159;28;20067;-61
2023/03/16 05:43:13;;;;;;;8.02;2.47;;;;;;;7.62;54.45;100800.50;5073597;28;20053;-63
2023/03/16 05:45:45;;;;;;;7.80;2.60;;;;;;;7.60;54.87;100798.06;5073387;28;20060;-62
2023/03/16 05:48:16;;;;;;;8.73;2.80;;;;;;;7.49;54.83;100793.00;5059730;28;20052;-61
2023/03/16 05:50:49;;;;;;;10.18;2.60;;;;;;;7.50;54.68;100791.88;5074373;28;20056;-62
2023/03/16 05:53:19;;;;;;;9.48;2.30;;;;;;;7.44;55.40;100799.38;5066578;28;20075;-61
2023/03/16 05:55:53;;;;;;;10.43;2.63;;;;;;;7.54;55.39;100793.78;5064452;28;20089;-62
2023/03/16 05:58:21;;;;;;;8.27;2.88;;;;;;;7.66;54.73;100787.88;5061688;28;20048;-62
2023/03/16 06:00:50;;;;;;;6.22;2.50;;;;;;;7.73;54.21;100791.91;5059671;28;20052;-63
2023/03/16 06:03:23;;;;;;;11.40;2.38;;;;;;;7.86;53.80;100791.16;5045706;28;20060;-64
2023/03/16 06:05:52;;;;;;;9.88;3.00;;;;;;;7.68;54.41;100788.41;5063958;28;20052;-63
2023/03/16 06:08:27;;;;;;;7.70;2.63;;;;;;;7.82;54.12;100792.06;5072806;28;20376;-63
2023/03/16 06:11:00;;;;;;;7.75;2.45;;;;;;;7.80;53.68;100786.06;5074010;28;20057;-62
2023/03/16 06:13:28;;;;;;;7.22;2.40;;;;;;;7.75;54.32;100789.69;5070179;28;20045;-61
2023/03/16 06:15:55;;;;;;;6.72;2.63;;;;;;;7.66;54.40;100796.09;5086054;28;20049;-62
2023/03/16 06:18:23;;;;;;;8.40;2.20;;;;;;;7.76;53.80;100796.78;5059703;28;20052;-62
2023/03/16 06:20:50;;;;;;;7.10;2.20;;;;;;;7.88;54.35;100790.88;5059417;28;20064;-63
2023/03/16 06:23:20;;;;;;;8.50;2.15;;;;;;;7.94;53.93;100796.03;5064852;28;20059;-62
2023/03/16 06:25:49;;;;;;;8.73;2.60;;;;;;;7.77;53.73;100800.34;5066537;28;20052;-63
2023/03/16 06:28:23;;;;;;;7.85;2.58;;;;;;;7.80;54.20;100800.59;5065570;28;20048;-62
2023/03/16 06:30:55;;;;;;;10.18;2.35;;;;;;;7.82;53.80;100792.88;5031021;28;20067;-63
2023/03/16 06:33:26;;;;;;;12.20;2.75;;;;;;;7.87;53.72;100790.06;5055527;28;20044;-63
2023/03/16 06:35:54;;;;;;;7.15;2.63;;;;;;;7.76;53.84;100791.31;5023024;28;20068;-62
2023/03/16 06:38:29;;;;;;;7.50;2.42;;;;;;;7.60;53.47;100792.59;5070951;28;20400;-63
2023/03/16 06:41:17;;;;;;;11.93;3.20;;;;;;;7.88;53.12;100796.34;5066485;28;20064;-63
2023/03/16 06:43:46;;;;;;;7.50;2.50;;;;;;;7.71;52.68;100791.38;5074895;28;20444;-64
2023/03/16 06:46:13;;;;;;;10.05;3.03;;;;;;;7.89;52.48;100793.34;5072249;28;20059;-64
2023/03/16 06:48:41;;;;;;;14.57;3.20;;;;;;;8.10;52.28;100796.63;5085039;28;20052;-64
2023/03/16 06:51:08;;;;;;;6.07;2.40;;;;;;;8.05;52.43;100793.97;5073445;28;20048;-64
2023/03/16 06:53:36;;;;;;;9.55;2.83;;;;;;;8.15;52.27;100796.56;5074651;28;20045;-62
2023/03/16 06:56:04;;;;;;;10.73;2.95;;;;;;;8.18;51.96;100793.22;5081778;28;20052;-63
2023/03/16 06:58:36;;;;;;;11.70;2.53;;;;;;;8.26;51.78;100784.38;5064483;28;20060;-62
2023/03/16 07:01:03;;;;;;;8.05;2.53;;;;;;;8.37;51.51;100780.34;5060931;28;20067;-62
2023/03/16 07:03:31;;;;;;;13.45;2.85;;;;;;;8.30;51.25;100773.63;5075251;28;20519;-61
2023/03/16 07:06:05;;;;;;;8.07;3.28;;;;;;;8.10;51.66;100771.94;5073351;28;20060;-63
2023/03/16 07:08:32;;;;;;;8.95;2.47;;;;;;;8.13;52.31;100765.03;5075970;28;20389;-62
2023/03/16 07:11:00;;;;;;;8.30;2.60;;;;;;;8.09;51.45;100777.72;5073603;28;20396;-61
2023/03/16 07:13:27;;;;;;;7.03;2.22;;;;;;;7.93;52.06;100774.38;5087744;28;20055;-63
2023/03/16 07:15:55;;;;;;;8.23;2.03;;;;;;;7.85;52.60;100769.53;5072587;28;20533;-62
2023/03/16 07:18:24;;;;;;;8.57;2.58;;;;;;;7.87;52.45;100772.78;5067890;28;20052;-62
2023/03/16 07:20:53;;;;;;;9.18;3.55;;;;;;;8.07;52.19;100763.50;5069322;28;20052;-62
2023/03/16 07:23:23;;;;;;;10.75;4.50;;;;;;;8.44;51.17;100758.03;5062050;28;20064;-62
2023/03/16 07:25:54;;;;;;;11.48;2.80;;;;;;;8.48;50.62;100764.53;5048120;28;20537;-63
2023/03/16 07:28:22;;;;;;;8.15;2.35;;;;;;;8.11;51.41;100754.34;5056542;28;20056;-62
2023/03/16 07:30:50;;;;;;;9.23;2.38;;;;;;;8.18;51.47;100762.22;5059149;28;20059;-62
2023/03/16 07:33:35;;;;;;;7.20;2.50;;;;;;;8.25;51.21;100755.28;5063316;28;20522;-60
2023/03/16 07:36:05;;;;;;;9.30;2.40;;;;;;;8.30;50.99;100752.47;5058856;28;20057;-62
2023/03/16 07:38:38;;;;;;;7.57;2.25;;;;;;;8.67;50.42;100743.38;5068649;28;20071;-61
2023/03/16 07:41:06;;;;;;;9.02;2.40;;;;;;;8.60;52.55;100751.16;5063161;28;20060;-63
2023/03/16 07:43:34;;;;;;;10.63;2.38;;;;;;;8.62;52.25;100749.75;5063552;28;20059;-64
2023/03/16 07:46:01;;;;;;;14.75;2.60;;;;;;;8.69;52.46;100747.44;5065249;28;20076;-64
2023/03/16 07:48:29;;;;;;;9.95;1.98;;;;;;;8.92;51.46;100749.25;5048119;28;20063;-63
2023/03/16 07:51:00;;;;;;;8.50;2.33;;;;;;;9.35;51.10;100749.81;5042462;28;20051;-66
2023/03/16 07:53:29;;;;;;;10.48;2.55;;;;;;;9.38;49.70;100746.44;5064903;28;20037;-63
2023/03/16 07:56:31;;;;;;;7.53;3.53;;;;;;;9.44;49.77;100749.91;5060034;28;20056;-64
2023/03/16 07:59:23;;;;;;;6.45;2.30;;;;;;;9.46;48.48;100759.50;5062229;28;20041;-65
2023/03/16 08:01:50;;;;;;;15.77;2.42;;;;;;;9.27;49.17;100755.22;5070809;28;20044;-64
2023/03/16 08:04:18;;;;;;;9.93;2.42;;;;;;;9.38;48.87;100756.66;5061453;28;20415;-63
2023/03/16 08:06:46;;;;;;;10.20;2.45;;;;;;;9.29;49.06;100755.72;5063889;28;20419;-64
2023/03/16 08:09:14;;;;;;;9.02;2.13;;;;;;;9.35;49.48;100749.00;5069308;28;20037;-64
2023/03/16 08:11:42;;;;;;;4.65;2.20;;;;;;;9.39;48.74;100752.78;5056472;28;20048;-65
2023/03/16 08:14:10;;;;;;;8.50;2.65;;;;;;;9.20;49.01;100755.63;5069616;28;20045;-65
2023/03/16 08:16:53;;;;;;;11.82;3.22;;;;;;;9.41;49.63;100748.63;5070524;28;20101;-65
2023/03/16 08:19:21;;;;;;;13.27;4.43;;;;;;;9.49;49.16;100752.56;5063137;28;20051;-62
2023/03/16 08:21:50;;;;;;;11.05;3.90;;;;;;;9.45;49.26;100762.56;5043946;28;20056;-66
2023/03/16 08:24:32;;;;;;;16.15;4.57;;;;;;;9.68;48.66;100762.34;5062712;28;20064;-64
2023/03/16 08:27:01;;;;;;;13.00;4.20;;;;;;;9.73;49.15;100755.91;5070639;28;20048;-63
2023/03/16 08:29:29;;;;;;;18.02;10.48;;;;;;;9.90;49.01;100762.41;5066908;28;20071;-64
2023/03/16 08:31:57;;;;;;;10.95;3.35;;;;;;;10.10;47.85;100752.94;5070133;28;20407;-64
2023/03/16 08:34:30;;;;;;;9.10;2.38;;;;;;;9.83;47.83;100753.78;5068966;28;20068;-64
2023/03/16 08:36:58;;;;;;;9.40;2.70;;;;;;;9.82;48.18;100751.31;5062714;28;20041;-64
2023/03/16 08:39:27;;;;;;;13.18;3.33;;;;;;;9.99;48.27;100757.00;5064722;28;20412;-64
2023/03/16 08:41:56;;;;;;;10.63;2.92;;;;;;;10.11;47.83;100747.13;5056832;28;20496;-64
2023/03/16 08:44:31;;;;;;;12.27;3.95;;;;;;;10.33;47.26;100753.81;5042132;28;20048;-64
2023/03/16 08:47:00;;;;;;;10.38;3.33;;;;;;;10.09;47.38;100751.34;5066488;28;20049;-64
2023/03/16 08:49:28;;;;;;;11.18;3.20;;;;;;;10.32;47.62;100744.72;5056837;28;20045;-64
2023/03/16 08:52:09;;;;;;;9.63;2.97;;;;;;;10.40;46.90;100734.91;5065595;28;20487;-64
2023/03/16 08:54:37;;;;;;;11.35;2.63;;;;;;;10.17;47.29;100737.66;5067501;28;20424;-64
2023/03/16 08:57:04;;;;;;;12.18;2.88;;;;;;;10.29;47.93;100737.09;5061490;28;20045;-62
2023/03/16 08:59:32;;;;;;;7.72;3.05;;;;;;;10.48;47.79;100739.69;5066586;28;20411;-63
2023/03/16 09:01:59;;;;;;;11.85;2.65;;;;;;;10.58;46.48;100743.03;5063756;28;20491;-64
2023/03/16 09:04:29;;;;;;;10.00;2.40;;;;;;;10.43;46.52;100740.63;5062162;28;20049;-64
2023/03/16 09:06:57;;;;;;;9.45;3.75;;;;;;;10.76;46.27;100742.00;5063899;28;20371;-64
2023/03/16 09:09:35;;;;;;;18.33;7.85;;;;;;;10.98;46.51;100747.47;5061037;28;20036;-67
2023/03/16 09:12:03;;;;;;;11.50;2.72;;;;;;;11.20;45.45;100743.88;5069570;28;20059;-67
2023/03/16 09:14:30;;;;;;;10.50;2.47;;;;;;;11.13;44.96;100741.59;5066805;28;20052;-66
2023/03/16 09:16:58;;;;;;;8.80;2.47;;;;;;;11.27;45.00;100738.72;5069250;28;20053;-67
2023/03/16 09:19:25;;;;;;;7.40;2.20;;;;;;;11.47;46.32;100732.66;5051556;28;20045;-65
2023/03/16 09:21:57;;;;;;;8.63;1.92;;;;;;;11.40;45.41;100728.72;5060643;28;20057;-66
2023/03/16 09:24:24;;;;;;;9.77;2.30;;;;;;;11.32;45.40;100725.63;5060330;28;20071;-67
2023/03/16 09:26:52;;;;;;;9.25;2.33;;;;;;;11.21;45.59;100727.00;5068576;28;20060;-67
2023/03/16 09:29:20;;;;;;;12.05;4.03;;;;;;;11.40;45.85;100710.25;5064959;28;20052;-68
2023/03/16 09:31:48;;;;;;;9.18;2.78;;;;;;;11.43;45.20;100715.13;5063434;28;20045;-66
2023/03/16 09:34:16;;;;;;;11.98;2.13;;;;;;;11.45;45.11;100712.03;5067977;28;20068;-67
2023/03/16 09:36:43;;;;;;;10.70;2.45;;;;;;;11.44;44.96;100718.69;5068470;28;20044;-66
2023/03/16 09:39:12;;;;;;;14.50;2.42;;;;;;;11.56;45.11;100705.88;5071657;28;20048;-65
2023/03/16 09:41:57;;;;;;;12.63;2.65;;;;;;;11.71;44.98;100711.00;5061781;28;20049;-68
2023/03/16 09:44:58;;;;;;;12.00;2.67;;;;;;;11.82;44.57;100701.28;5071293;28;20044;-64
2023/03/16 09:47:33;;;;;;;10.10;3.22;;;;;;;11.93;44.55;100704.53;5060503;28;20053;-66
2023/03/16 09:50:07;;;;;;;7.90;2.45;;;;;;;12.06;44.43;100696.13;5057835;28;20060;-66
2023/03/16 09:52:47;;;;;;;11.27;2.40;;;;;;;12.36;43.17;100706.19;5062067;28;20052;-65
2023/03/16 09:55:32;;;;;;;10.88;2.50;;;;;;;12.30;44.17;100699.22;5058568;28;20059;-66
2023/03/16 09:58:00;;;;;;;8.20;2.30;;;;;;;12.27;43.81;100702.63;5060165;28;20087;-66
2023/03/16 10:00:38;;;;;;;8.30;1.77;;;;;;;12.25;43.52;100693.06;5082317;28;20048;-66
2023/03/16 10:03:15;;;;;;;10.98;1.90;;;;;;;12.30;44.03;100690.94;5068465;28;20057;-67
2023/03/16 10:05:43;;;;;;;7.78;1.90;;;;;;;12.31;43.51;100688.97;5071118;28;20075;-67
2023/03/16 10:08:23;;;;;;;10.27;1.88;;;;;;;12.71;43.12;100695.91;5063651;28;20056;-66
2023/03/16 10:11:13;;;;;;;7.28;2.25;;;;;;;12.67;43.43;100688.63;5061023;28;20064;-66
2023/03/16 10:13:48;;;;;;;15.50;3.15;;;;;;;12.72;43.51;100689.28;5060695;28;20372;-66
2023/03/16 10:16:19;;;;;;;11.65;2.00;;;;;;;12.57;43.74;100683.44;5065705;28;20052;-66
2023/03/16 10:18:49;;;;;;;9.63;2.65;;;;;;;12.68;43.16;100690.22;5045886;28;20053;-66
2023/03/16 10:21:18;;;;;;;15.65;6.85;;;;;;;12.74;43.28;100688.94;5061275;28;20053;-66
2023/03/16 10:23:47;;;;;;;10.48;2.50;;;;;;;12.64;43.62;100692.06;5057830;28;20048;-67
2023/03/16 10:26:20;;;;;;;7.23;1.77;;;;;;;12.73;43.79;100690.06;5059443;28;20056;-66
2023/03/16 10:28:47;;;;;;;10.48;2.88;;;;;;;12.87;43.52;100685.97;5064456;28;20289;-66
2023/03/16 10:31:16;;;;;;;9.77;2.38;;;;;;;12.88;43.38;100671.03;5040750;28;20053;-66
2023/03/16 10:33:44;;;;;;;9.75;2.38;;;;;;;12.94;43.27;100675.22;5073990;28;20052;-66
2023/03/16 10:36:36;;;;;;;6.82;2.22;;;;;;;13.09;43.27;100674.69;5053401;28;20056;-66
2023/03/16 10:39:04;;;;;;;10.85;3.13;;;;;;;13.21;43.09;100674.84;5063350;28;20064;-66
2023/03/16 10:41:36;;;;;;;6.25;2.35;;;;;;;13.14;42.76;100666.25;5066639;28;20500;-67
2023/03/16 10:44:12;;;;;;;7.28;2.60;;;;;;;13.24;42.53;100665.06;5063154;28;20082;-67
2023/03/16 10:46:46;;;;;;;7.22;2.20;;;;;;;13.42;42.56;100666.59;5049401;28;20503;-67
2023/03/16 10:49:26;;;;;;;13.63;3.10;;;;;;;13.63;41.93;100666.66;5057184;28;20052;-66
2023/03/16 10:51:58;;;;;;;10.17;2.97;;;;;;;14.03;41.67;100653.97;5062198;28;20055;-66
2023/03/16 10:54:32;;;;;;;20.08;3.58;;;;;;;13.65;42.12;100654.06;5069834;28;20503;-66
2023/03/16 10:57:35;;;;;;;10.52;2.60;;;;;;;13.88;41.32;100641.53;5070391;28;20048;-66
2023/03/16 11:00:12;;;;;;;10.15;2.75;;;;;;;13.89;41.32;100639.59;5060970;28;20049;-67
2023/03/16 11:02:40;;;;;;;8.68;2.70;;;;;;;13.87;41.95;100634.41;5079794;28;20045;-67
2023/03/16 11:05:23;;;;;;;10.07;2.63;;;;;;;14.09;41.52;100636.00;5043430;28;20053;-67
2023/03/16 11:08:09;;;;;;;8.60;2.60;;;;;;;14.01;41.53;100642.44;5059783;28;20053;-67
2023/03/16 11:10:39;;;;;;;16.70;5.63;;;;;;;14.02;41.32;100632.97;5060486;28;20044;-69
2023/03/16 11:13:33;;;;;;;13.68;5.15;;;;;;;14.18;41.16;100628.44;5057289;28;20049;-67
2023/03/16 11:16:23;;;;;;;12.18;4.07;;;;;;;14.06;41.22;100631.97;5061460;28;20057;-69
2023/03/16 11:18:59;;;;;;;14.90;2.97;;;;;;;14.11;41.30;100622.63;5066259;28;20040;-67
2023/03/16 11:21:37;;;;;;;12.13;4.65;;;;;;;14.03;41.39;100612.44;5034586;28;20060;-66
2023/03/16 11:24:12;;;;;;;12.70;3.65;;;;;;;14.33;41.39;100609.25;5064729;28;20064;-68
2023/03/16 11:26:41;;;;;;;12.40;4.13;;;;;;;14.21;41.40;100606.41;5062002;28;20475;-68
2023/03/16 11:29:27;;;;;;;12.13;3.53;;;;;;;14.14;41.40;100595.06;5069023;28;20037;-69
2023/03/16 11:32:00;;;;;;;15.73;3.67;;;;;;;14.37;42.32;100588.03;5059302;28;20045;-67
2023/03/16 11:34:29;;;;;;;14.52;3.72;;;;;;;14.70;41.07;100587.97;5053901;28;20072;-67
2023/03/16 11:37:22;;;;;;;11.85;2.92;;;;;;;14.87;40.65;100579.44;5046530;28;20053;-68
2023/03/16 11:39:55;;;;;;;9.73;3.35;;;;;;;15.06;40.74;100573.34;5058828;28;20067;-68
2023/03/16 11:42:33;;;;;;;19.08;8.00;;;;;;;15.00;40.50;100578.31;5059216;28;20063;-68
2023/03/16 11:45:09;;;;;;;18.08;8.25;;;;;;;15.08;40.23;100580.16;5061716;28;20060;-68
2023/03/16 11:47:58;;;;;;;16.75;6.78;;;;;;;15.31;39.77;100573.00;5063866;28;20056;-69
2023/03/16 11:50:37;;;;;;;20.77;9.00;;;;;;;15.19;40.10;100566.63;5079723;28;20045;-69